Wednesday, November 22, 2017, 4:02 AM EST
Back to Local

KMHT, Manchester Airport

Location: Manchester, NH, United States Lat: 42.933
Local Time: 4:02 AM EST ( 9:02 GMT) Lon: -71.433
Time Zone: US/Eastern Elev: 232 ft

Show me the last for .
Show Coded

Time T Td Feel RH Dir Speed Gust Alt SLP Vis Weather Sky Remarks
2017-11-22 02:53 39 34 - 81 - Calm - 29.97 30.01 10 SCT200 None
2017-11-22 01:53 41 34 - 75 - Calm - 29.97 30.01 10 SCT200 None
2017-11-22 00:53 43 34 39 70 190° 7 - 29.97 30.01 10 SCT200 6-hr Min Temp (1am): 43.0°F
6-hr Max Temp (1am): 50.0°F
2017-11-21 23:53 43 34 39 70 190° 6 - 29.98 30.02 10 BKN200 24-hr Min Temp (12am): 30.9°F
24-hr Max Temp (12am): 59.0°F
2017-11-21 22:53 44 34 40 67 190° 7 - 29.98 30.02 10 BKN200 None
2017-11-21 21:53 46 34 41 62 180° 9 - 29.97 30.01 10 BKN200 None
2017-11-21 20:53 47 34 45 60 180° 5 - 29.98 30.03 10 BKN200 None
2017-11-21 19:53 47 34 44 60 190° 7 - 29.97 30.02 10 SCT250 None
2017-11-21 18:53 50 34 47 53 180° 8 - 29.95 30.00 10 SCT250 6-hr Min Temp (7pm): 50.0°F
6-hr Max Temp (7pm): 59.0°F
2017-11-21 17:53 52 33 - 48 200° 10 - 29.95 29.99 10 BKN250 None
2017-11-21 16:53 54 30 - 39 180° 13 20 29.94 29.98 10 SCT250 None
2017-11-21 15:53 57 27 - 31 200° 16 24 29.92 29.97 10 FEW250 Peak wind: 31 mph (27 kts) from 190° at 30 min
2017-11-21 14:53 58 26 - 29 200° 17 28 29.92 29.96 10 FEW250 Peak wind: 29 mph (26 kts) from 200° at 22 min
2017-11-21 13:53 58 25 - 27 220° 14 22 29.92 29.96 10 FEW250 Peak wind: 31 mph (27 kts) from 200° at 24 min
2017-11-21 12:53 58 24 - 26 200° 21 26 29.93 29.97 10 FEW150 6-hr Min Temp (1pm): 30.9°F
6-hr Max Temp (1pm): 57.9°F
2017-11-21 11:53 52 27 - 37 190° 8 - 29.96 30.01 10 BKN150 None
2017-11-21 10:53 43 26 38 50 190° 8 - 30.02 30.07 10 BKN150 None
2017-11-21 09:53 39 25 33 56 170° 9 - 30.05 30.10 10 BKN150 None
2017-11-21 08:53 37 25 32 61 180° 6 - 30.06 30.11 10 SCT150 None
2017-11-21 07:53 32 26 - 78 - Calm - 30.07 30.12 10 FEW150 None
2017-11-21 06:53 32 25 - 74 - Calm - 30.07 30.12 10 CLR 6-hr Min Temp (7am): 32.0°F
6-hr Max Temp (7am): 39.0°F
2017-11-21 05:53 34 26 29 72 200° 6 - 30.06 30.11 10 FEW050 None
2017-11-21 04:53 35 26 29 69 170° 7 - 30.04 30.09 10 FEW050 None

Support USWX by starting your Amazon purchase here.